Time;durP1;ratioP1;P1;durP2;ratioP2;P2;SDS_P1;SDS_P2;PMS_P1;PMS_P2;Temp;Humidity;BMP_temperature;BMP_pressure;BME280_temperature;BME280_humidity;BME280_pressure;Samples;Min_cycle;Max_cycle;Signal;HPM_P1;HPM_P2
2022/01/03 00:01:20;;;;;;;84.13;46.30;;;;;;;0.49;100.00;98236.16;5106281;28;20060;-80
2022/01/03 00:03:46;;;;;;;80.30;45.42;;;;;;;0.48;100.00;98245.28;5106498;28;20028;-75
2022/01/03 00:06:12;;;;;;;75.55;44.50;;;;;;;0.46;100.00;98246.56;5105702;28;20036;-74
2022/01/03 00:08:44;;;;;;;81.47;46.25;;;;;;;0.51;100.00;98249.38;5100763;28;20475;-77
2022/01/03 00:11:17;;;;;;;72.00;42.92;;;;;;;0.43;100.00;98247.00;5113019;28;20036;-77
2022/01/03 00:13:48;;;;;;;75.82;43.50;;;;;;;0.39;100.00;98251.16;5104556;28;20081;-75
2022/01/03 00:16:14;;;;;;;75.32;43.80;;;;;;;0.42;100.00;98242.66;5092554;28;20027;-74
2022/01/03 00:18:40;;;;;;;71.85;42.97;;;;;;;0.50;100.00;98231.63;5108211;28;20031;-77
2022/01/03 00:21:14;;;;;;;70.18;41.83;;;;;;;0.56;100.00;98233.41;5091930;28;20073;-74
2022/01/03 00:23:47;;;;;;;71.70;39.95;;;;;;;0.47;100.00;98232.06;5106610;28;20114;-73
2022/01/03 00:26:13;;;;;;;71.57;39.60;;;;;;;0.47;100.00;98229.38;5099369;28;20470;-76
2022/01/03 00:28:45;;;;;;;69.03;40.55;;;;;;;0.47;100.00;98232.84;5092684;28;20035;-75
2022/01/03 00:31:10;;;;;;;67.30;40.08;;;;;;;0.44;100.00;98227.94;5097109;28;20481;-79
2022/01/03 00:33:37;;;;;;;67.18;39.63;;;;;;;0.49;100.00;98224.56;5109084;28;20027;-75
2022/01/03 00:36:04;;;;;;;72.10;39.92;;;;;;;0.43;100.00;98210.16;5100602;28;20477;-75
2022/01/03 00:38:35;;;;;;;67.82;40.25;;;;;;;0.40;100.00;98207.09;5096501;28;20035;-74
2022/01/03 00:41:02;;;;;;;67.68;38.85;;;;;;;0.40;100.00;98209.78;5096319;28;20035;-74
2022/01/03 00:43:29;;;;;;;77.30;43.08;;;;;;;0.47;100.00;98208.66;5093546;28;20023;-77
2022/01/03 00:45:56;;;;;;;62.88;39.15;;;;;;;0.51;100.00;98206.34;5100864;28;20016;-73
2022/01/03 00:48:22;;;;;;;69.20;41.45;;;;;;;0.51;100.00;98207.16;5106786;28;20034;-76
2022/01/03 00:50:48;;;;;;;75.22;45.25;;;;;;;0.52;100.00;98203.44;5091316;28;20031;-75
2022/01/03 00:53:14;;;;;;;70.68;41.03;;;;;;;0.54;100.00;98206.72;5091536;28;20070;-78
2022/01/03 00:55:55;;;;;;;71.25;39.20;;;;;;;0.60;100.00;98204.16;5112819;28;20044;-80
2022/01/03 00:58:24;;;;;;;65.05;36.88;;;;;;;0.52;100.00;98189.16;5092823;28;20024;-78
2022/01/03 01:00:52;;;;;;;60.40;35.63;;;;;;;0.60;100.00;98198.78;5095510;28;20388;-78
2022/01/03 01:03:27;;;;;;;66.57;39.45;;;;;;;0.52;100.00;98189.97;5101374;28;20456;-75
2022/01/03 01:05:53;;;;;;;66.50;39.07;;;;;;;0.47;100.00;98210.53;5099551;28;20016;-76
2022/01/03 01:08:21;;;;;;;65.13;38.58;;;;;;;0.28;100.00;98190.06;5115401;28;20035;-73
2022/01/03 01:10:50;;;;;;;63.15;36.90;;;;;;;0.33;100.00;98207.16;5111708;28;20035;-76
2022/01/03 01:13:15;;;;;;;63.17;38.72;;;;;;;0.28;100.00;98195.44;5111996;28;20031;-73
2022/01/03 01:15:42;;;;;;;65.07;38.00;;;;;;;0.31;100.00;98189.63;5111703;28;20039;-74
2022/01/03 01:18:08;;;;;;;66.00;40.08;;;;;;;0.34;100.00;98199.94;5111666;28;20097;-73
2022/01/03 01:20:36;;;;;;;70.00;38.78;;;;;;;0.28;100.00;98190.06;5112003;28;20361;-74
2022/01/03 01:23:04;;;;;;;68.68;38.58;;;;;;;0.36;100.00;98192.44;5110875;28;20036;-74
2022/01/03 01:28:01;;;;;;;56.85;34.25;;;;;;;0.57;100.00;98204.59;5090382;28;20036;-74
2022/01/03 01:30:28;;;;;;;58.90;34.33;;;;;;;0.74;100.00;98214.56;5090488;28;20038;-75
2022/01/03 01:33:03;;;;;;;62.80;36.22;;;;;;;0.63;100.00;98209.91;5091230;28;20028;-77
2022/01/03 01:35:52;;;;;;;56.70;34.35;;;;;;;0.71;100.00;98212.31;5091044;28;20031;-74
2022/01/03 01:38:21;;;;;;;54.85;33.53;;;;;;;0.69;100.00;98211.69;5090670;28;20035;-74
2022/01/03 01:40:48;;;;;;;56.78;32.58;;;;;;;0.69;100.00;98205.53;5091003;28;20067;-74
2022/01/03 01:43:19;;;;;;;57.30;34.67;;;;;;;0.61;100.00;98189.66;5091448;28;20016;-75
2022/01/03 01:45:48;;;;;;;52.70;33.65;;;;;;;0.63;100.00;98204.53;5091074;28;20020;-75
2022/01/03 01:48:16;;;;;;;57.85;35.35;;;;;;;0.61;100.00;98197.72;5090996;28;20024;-74
2022/01/03 01:50:41;;;;;;;58.97;34.38;;;;;;;0.61;100.00;98206.63;5091854;28;20520;-75
2022/01/03 01:53:08;;;;;;;52.55;33.67;;;;;;;0.64;100.00;98195.41;5095444;28;20127;-74
2022/01/03 01:55:39;;;;;;;55.95;34.00;;;;;;;0.71;100.00;98206.09;5094931;28;20040;-75
2022/01/03 01:58:21;;;;;;;53.95;32.78;;;;;;;0.78;100.00;98213.06;5095220;28;20454;-76
2022/01/03 02:00:55;;;;;;;56.72;35.70;;;;;;;0.95;100.00;98197.06;5095233;28;20027;-78
2022/01/03 02:04:07;;;;;;;54.95;33.58;;;;;;;0.94;100.00;98185.47;5095526;28;20035;-77
2022/01/03 02:06:44;;;;;;;45.60;29.45;;;;;;;1.13;100.00;98193.53;5095097;28;20074;-77
2022/01/03 02:09:19;;;;;;;49.13;31.38;;;;;;;1.14;100.00;98195.16;5095045;28;20158;-77
2022/01/03 02:11:53;;;;;;;49.25;30.05;;;;;;;1.08;100.00;98181.56;5095147;28;20017;-76
2022/01/03 02:14:23;;;;;;;49.88;28.75;;;;;;;1.13;100.00;98182.75;5094782;28;20039;-75
2022/01/03 02:16:50;;;;;;;47.42;27.10;;;;;;;1.06;100.00;98183.69;5094734;28;20035;-75
2022/01/03 02:19:16;;;;;;;47.10;27.05;;;;;;;1.03;100.00;98184.09;5094852;28;20097;-75
2022/01/03 02:21:42;;;;;;;44.85;27.75;;;;;;;1.04;100.00;98188.44;5095022;28;20020;-74
2022/01/03 02:24:08;;;;;;;45.75;28.67;;;;;;;1.08;100.00;98178.03;5094810;28;20053;-76
2022/01/03 02:26:34;;;;;;;49.78;27.38;;;;;;;1.02;100.00;98182.47;5093315;28;20032;-76
2022/01/03 02:29:00;;;;;;;46.00;27.48;;;;;;;0.96;100.00;98178.03;5094357;28;20020;-74
2022/01/03 02:31:26;;;;;;;49.70;27.77;;;;;;;0.97;100.00;98163.47;5094444;28;20069;-74
2022/01/03 02:33:52;;;;;;;43.60;26.17;;;;;;;0.92;100.00;98163.34;5093183;28;20492;-74
2022/01/03 02:36:19;;;;;;;41.65;26.27;;;;;;;0.88;100.00;98154.09;5094480;28;20035;-73
2022/01/03 02:38:45;;;;;;;47.28;28.60;;;;;;;0.92;100.00;98155.28;5094389;28;20056;-73
2022/01/03 02:41:11;;;;;;;46.28;28.40;;;;;;;0.84;100.00;98142.16;5094746;28;20069;-73
2022/01/03 02:43:37;;;;;;;48.88;29.55;;;;;;;0.82;100.00;98148.78;5099679;28;20030;-78
2022/01/03 02:46:03;;;;;;;45.20;28.25;;;;;;;0.73;100.00;98134.03;5099772;28;20028;-74
2022/01/03 02:48:28;;;;;;;49.30;29.33;;;;;;;0.85;100.00;98145.66;5097574;28;20099;-74
2022/01/03 02:50:54;;;;;;;48.17;28.23;;;;;;;0.72;100.00;98143.97;5094821;28;20036;-74
2022/01/03 02:53:21;;;;;;;49.15;30.70;;;;;;;0.64;100.00;98141.59;5094378;28;20008;-73
2022/01/03 02:55:47;;;;;;;49.70;31.13;;;;;;;0.68;100.00;98132.03;5093773;28;20036;-74
2022/01/03 02:58:13;;;;;;;53.83;31.73;;;;;;;0.74;100.00;98135.66;5095935;28;20036;-74
2022/01/03 03:00:45;;;;;;;47.85;29.98;;;;;;;0.72;100.00;98149.34;5094172;28;20392;-74
2022/01/03 03:03:19;;;;;;;55.00;32.20;;;;;;;0.71;100.00;98141.50;5093311;28;20030;-74
2022/01/03 03:05:46;;;;;;;48.88;31.40;;;;;;;0.72;100.00;98133.19;5093673;28;20016;-74
2022/01/03 03:08:13;;;;;;;49.05;29.33;;;;;;;0.83;100.00;98124.34;5093794;28;20119;-74
2022/01/03 03:10:39;;;;;;;54.55;31.70;;;;;;;0.83;100.00;98135.13;5094305;28;20035;-74
2022/01/03 03:13:04;;;;;;;50.63;30.67;;;;;;;0.79;100.00;98117.78;5094531;28;20422;-74
2022/01/03 03:15:30;;;;;;;63.03;34.38;;;;;;;0.84;100.00;98123.31;5093624;28;21400;-75
2022/01/03 03:17:56;;;;;;;55.78;32.92;;;;;;;0.88;100.00;98150.56;5093426;28;20028;-75
2022/01/03 03:20:25;;;;;;;56.28;32.88;;;;;;;0.81;100.00;98137.22;5093419;28;20032;-74
2022/01/03 03:22:51;;;;;;;55.70;32.00;;;;;;;0.73;100.00;98132.16;5093703;28;20036;-73
2022/01/03 03:25:22;;;;;;;50.58;31.58;;;;;;;0.74;100.00;98127.59;5093493;28;20090;-78
2022/01/03 03:27:51;;;;;;;52.78;30.60;;;;;;;0.75;100.00;98121.16;5093403;28;20032;-78
2022/01/03 03:30:23;;;;;;;53.63;29.42;;;;;;;0.76;100.00;98134.38;5092969;28;20024;-77
2022/01/03 03:32:51;;;;;;;51.88;29.95;;;;;;;0.96;100.00;98126.03;5092986;28;20020;-78
2022/01/03 03:35:16;;;;;;;48.90;27.88;;;;;;;1.00;100.00;98122.63;5093087;28;20024;-81
2022/01/03 03:37:42;;;;;;;45.40;26.27;;;;;;;1.03;100.00;98106.00;5093368;28;20495;-77
2022/01/03 03:40:08;;;;;;;46.80;25.50;;;;;;;1.31;100.00;98110.78;5091968;28;20094;-79
2022/01/03 03:42:34;;;;;;;44.65;23.48;;;;;;;1.56;100.00;98103.31;5093529;28;20035;-80
2022/01/03 03:45:00;;;;;;;46.17;21.65;;;;;;;1.91;100.00;98088.97;5093097;28;20108;-76
2022/01/03 03:47:25;;;;;;;38.42;19.85;;;;;;;2.20;100.00;98097.94;5098038;28;20110;-77
2022/01/03 03:49:51;;;;;;;33.47;18.77;;;;;;;2.45;100.00;98099.28;5097255;28;20399;-75
2022/01/03 03:52:16;;;;;;;34.83;17.27;;;;;;;2.68;100.00;98096.50;5096189;28;20111;-76
2022/01/03 03:54:41;;;;;;;30.17;16.27;;;;;;;2.91;100.00;98090.16;5114055;28;20127;-75
2022/01/03 03:57:08;;;;;;;30.27;15.13;;;;;;;3.22;100.00;98086.94;5113012;28;20110;-75
2022/01/03 03:59:36;;;;;;;26.77;15.63;;;;;;;3.34;100.00;98075.19;5112674;27;20031;-75
2022/01/03 04:02:02;;;;;;;30.80;14.38;;;;;;;3.52;100.00;98080.34;5112584;28;20079;-76
2022/01/03 04:04:27;;;;;;;25.35;13.45;;;;;;;3.58;100.00;98072.06;5112571;28;20020;-74
2022/01/03 04:06:53;;;;;;;26.42;14.05;;;;;;;3.62;100.00;98051.59;5112422;27;20180;-75
2022/01/03 04:09:18;;;;;;;24.92;12.93;;;;;;;3.83;100.00;98055.38;5112474;28;20028;-76
2022/01/03 04:11:44;;;;;;;25.92;13.60;;;;;;;3.97;100.00;98069.38;5112148;28;20380;-75
2022/01/03 04:14:09;;;;;;;26.15;13.45;;;;;;;4.02;100.00;98093.78;5111674;28;20487;-75
2022/01/03 04:16:35;;;;;;;27.60;14.57;;;;;;;3.96;100.00;98098.31;5112386;28;20110;-76
2022/01/03 04:19:01;;;;;;;24.90;13.68;;;;;;;4.00;100.00;98085.94;5112159;28;20080;-75
2022/01/03 04:21:27;;;;;;;31.35;16.80;;;;;;;3.72;100.00;98100.44;5112192;28;20027;-77
2022/01/03 04:23:53;;;;;;;32.50;19.25;;;;;;;3.19;100.00;98083.91;5112587;28;20034;-75
2022/01/03 04:26:19;;;;;;;32.40;19.35;;;;;;;2.82;100.00;98053.78;5112156;28;20157;-76
2022/01/03 04:28:45;;;;;;;37.28;21.38;;;;;;;2.60;100.00;98055.56;5112050;28;20028;-76
2022/01/03 04:31:11;;;;;;;34.60;22.08;;;;;;;2.12;100.00;98053.28;5110941;28;20089;-75
2022/01/03 04:33:36;;;;;;;35.03;21.77;;;;;;;1.75;100.00;98066.25;5111980;28;20123;-77
2022/01/03 04:36:03;;;;;;;41.70;25.20;;;;;;;1.59;100.00;98100.13;5112108;28;20031;-75
2022/01/03 04:38:29;;;;;;;39.08;23.77;;;;;;;1.37;100.00;98082.06;5111445;28;20035;-76
2022/01/03 04:40:54;;;;;;;41.30;24.05;;;;;;;1.29;100.00;98088.63;5116025;28;20020;-76
2022/01/03 04:43:19;;;;;;;44.25;25.63;;;;;;;1.26;100.00;98101.72;5091955;28;20031;-76
2022/01/03 04:45:45;;;;;;;44.67;26.23;;;;;;;1.07;100.00;98109.91;5091548;28;20027;-77
2022/01/03 04:48:11;;;;;;;39.67;24.50;;;;;;;1.07;100.00;98092.91;5094151;28;20042;-75
2022/01/03 04:50:36;;;;;;;44.33;26.27;;;;;;;1.02;100.00;98079.34;5090550;28;20032;-75
2022/01/03 04:53:02;;;;;;;46.08;25.95;;;;;;;0.93;100.00;98070.78;5092654;28;20036;-77
2022/01/03 04:55:27;;;;;;;49.65;28.35;;;;;;;0.94;100.00;98085.84;5093973;28;20066;-76
2022/01/03 04:57:53;;;;;;;52.05;28.88;;;;;;;0.88;100.00;98097.56;5095836;28;20499;-77
2022/01/03 05:00:19;;;;;;;57.58;27.98;;;;;;;0.83;100.00;98097.44;5092063;28;20031;-76
2022/01/03 05:02:44;;;;;;;41.88;25.58;;;;;;;0.71;100.00;98098.44;5091243;28;20028;-75
2022/01/03 05:05:11;;;;;;;51.00;28.20;;;;;;;0.62;100.00;98099.81;5091571;28;20027;-75
2022/01/03 05:07:37;;;;;;;53.60;28.88;;;;;;;0.55;100.00;98089.16;5090958;28;20024;-75
2022/01/03 05:10:03;;;;;;;57.97;30.90;;;;;;;0.49;100.00;98084.69;5090933;28;20026;-77
2022/01/03 05:12:29;;;;;;;53.85;30.08;;;;;;;0.44;100.00;98089.91;5091132;28;20106;-75
2022/01/03 05:14:54;;;;;;;53.05;28.92;;;;;;;0.39;100.00;98073.63;5089674;28;20096;-75
2022/01/03 05:17:20;;;;;;;49.65;29.08;;;;;;;0.46;100.00;98085.13;5090873;28;20111;-76
2022/01/03 05:19:45;;;;;;;55.78;29.42;;;;;;;0.45;100.00;98072.72;5090921;28;20528;-74
2022/01/03 05:22:10;;;;;;;45.47;28.42;;;;;;;0.44;100.00;98082.66;5099046;28;20015;-74
2022/01/03 05:24:37;;;;;;;51.17;27.42;;;;;;;0.49;100.00;98082.81;5109709;28;20563;-77
2022/01/03 05:27:03;;;;;;;57.40;27.58;;;;;;;0.58;100.00;98069.84;5110239;28;20690;-75
2022/01/03 05:29:28;;;;;;;53.33;28.73;;;;;;;0.68;100.00;98082.75;5110773;28;20035;-77
2022/01/03 05:31:55;;;;;;;47.35;26.85;;;;;;;0.76;100.00;98091.31;5110746;28;20031;-76
2022/01/03 05:34:21;;;;;;;47.85;27.25;;;;;;;0.89;100.00;98090.31;5111086;28;20008;-74
2022/01/03 05:36:47;;;;;;;45.25;25.88;;;;;;;0.83;100.00;98081.28;5111642;28;20475;-75
2022/01/03 05:39:14;;;;;;;41.30;26.00;;;;;;;0.89;100.00;98079.53;5111408;28;20054;-75
2022/01/03 05:41:40;;;;;;;43.08;25.15;;;;;;;0.90;100.00;98071.25;5111519;28;20035;-75
2022/01/03 05:44:06;;;;;;;47.00;26.13;;;;;;;0.98;100.00;98070.91;5112683;28;20532;-74
2022/01/03 05:46:31;;;;;;;47.00;23.50;;;;;;;1.04;100.00;98072.66;5109698;28;20134;-77
2022/01/03 05:48:57;;;;;;;39.55;24.73;;;;;;;1.12;100.00;98070.69;5109728;28;20031;-78
2022/01/03 05:51:22;;;;;;;40.60;24.73;;;;;;;1.23;100.00;98051.84;5110775;28;20066;-76
2022/01/03 05:53:48;;;;;;;42.83;24.55;;;;;;;1.28;100.00;98053.84;5111247;28;20388;-76
2022/01/03 05:56:13;;;;;;;41.78;24.98;;;;;;;1.32;100.00;98055.00;5111037;28;20158;-77
2022/01/03 05:58:39;;;;;;;46.17;25.42;;;;;;;1.40;100.00;98046.59;5109646;28;20031;-76
2022/01/03 06:01:04;;;;;;;42.97;25.50;;;;;;;1.50;100.00;98054.91;5110769;28;20024;-75
2022/01/03 06:03:35;;;;;;;39.65;23.55;;;;;;;1.56;100.00;98059.34;5111284;28;20429;-77
2022/01/03 06:08:26;;;;;;;41.60;23.88;;;;;;;1.58;100.00;98068.00;5110944;28;20032;-77
2022/01/03 06:10:52;;;;;;;38.65;22.58;;;;;;;1.69;100.00;98064.50;5109585;28;20038;-76
2022/01/03 06:13:18;;;;;;;41.47;23.17;;;;;;;1.85;100.00;98046.78;5111197;28;20060;-78
2022/01/03 06:15:44;;;;;;;34.47;21.75;;;;;;;1.97;100.00;98052.97;5109586;28;20094;-77
2022/01/03 06:18:13;;;;;;;38.70;23.25;;;;;;;1.98;100.00;98058.09;5111106;28;20030;-75
2022/01/03 06:20:43;;;;;;;38.22;22.92;;;;;;;2.13;100.00;98066.50;5110805;28;20024;-77
2022/01/03 06:23:10;;;;;;;34.95;21.20;;;;;;;2.10;100.00;98066.16;5111292;28;20020;-78
2022/01/03 06:25:37;;;;;;;34.25;19.77;;;;;;;2.12;100.00;98072.97;5111060;28;20042;-78
2022/01/03 06:28:07;;;;;;;36.38;21.30;;;;;;;2.13;100.00;98077.31;5110588;28;20027;-77
2022/01/03 06:30:35;;;;;;;41.92;21.85;;;;;;;2.19;100.00;98070.16;5112142;28;20020;-79
2022/01/03 06:33:00;;;;;;;36.80;21.30;;;;;;;2.24;100.00;98056.75;5117098;28;20020;-76
2022/01/03 06:35:26;;;;;;;36.13;20.52;;;;;;;2.17;100.00;98046.09;5111668;28;20034;-76
2022/01/03 06:37:51;;;;;;;43.67;21.38;;;;;;;2.00;100.00;98045.22;5114927;28;20114;-77
2022/01/03 06:40:17;;;;;;;37.15;21.98;;;;;;;2.26;100.00;98064.59;5117237;28;20022;-76
2022/01/03 06:42:42;;;;;;;38.65;22.88;;;;;;;2.23;100.00;98062.38;5107830;28;20159;-75
2022/01/03 06:45:08;;;;;;;34.65;20.60;;;;;;;2.32;100.00;98064.47;5103965;28;20527;-76
2022/01/03 06:47:34;;;;;;;39.72;20.90;;;;;;;2.35;100.00;98060.47;5115644;28;20023;-75
2022/01/03 06:50:00;;;;;;;34.22;19.77;;;;;;;2.41;100.00;98079.22;5107460;28;20083;-76
2022/01/03 06:52:25;;;;;;;37.75;23.10;;;;;;;2.46;100.00;98086.59;5114336;28;20688;-76
2022/01/03 06:54:51;;;;;;;37.97;21.45;;;;;;;2.57;100.00;98083.03;5114070;28;20051;-78
2022/01/03 06:57:16;;;;;;;35.97;20.48;;;;;;;2.68;100.00;98093.78;5114084;28;20472;-80
2022/01/03 06:59:42;;;;;;;34.25;20.40;;;;;;;2.67;100.00;98084.03;5113417;28;20015;-81
2022/01/03 07:02:07;;;;;;;32.33;20.20;;;;;;;2.73;100.00;98084.94;5113680;28;20032;-79
2022/01/03 07:04:33;;;;;;;36.53;20.80;;;;;;;2.75;100.00;98079.31;5113729;28;20380;-78
2022/01/03 07:06:58;;;;;;;39.45;22.05;;;;;;;2.86;100.00;98087.34;5115907;28;20047;-76
2022/01/03 07:09:24;;;;;;;38.65;20.38;;;;;;;2.87;100.00;98078.19;5118518;28;20020;-79
2022/01/03 07:11:50;;;;;;;37.97;20.45;;;;;;;2.87;100.00;98077.38;5115494;28;20476;-77
2022/01/03 07:19:31;;;;;;;31.35;18.35;;;;;;;3.02;100.00;98085.75;5113599;28;20086;-78
2022/01/03 07:21:56;;;;;;;33.53;19.23;;;;;;;2.99;100.00;98081.66;5113409;28;20028;-77
2022/01/03 07:24:24;;;;;;;36.20;18.83;;;;;;;3.04;100.00;98097.94;5114930;28;20455;-76
2022/01/03 07:26:49;;;;;;;30.10;17.58;;;;;;;3.10;100.00;98086.16;5113298;28;20067;-76
2022/01/03 07:29:15;;;;;;;32.67;17.88;;;;;;;3.17;100.00;98094.94;5113118;28;20062;-78
2022/01/03 07:31:40;;;;;;;37.28;20.67;;;;;;;3.21;100.00;98089.88;5112312;28;20028;-74
2022/01/03 07:34:07;;;;;;;30.88;18.48;;;;;;;3.36;100.00;98105.50;5113409;28;20042;-79
2022/01/03 07:36:32;;;;;;;33.78;18.48;;;;;;;3.45;100.00;98093.22;5107308;28;20074;-83
2022/01/03 07:38:57;;;;;;;34.15;19.73;;;;;;;3.44;100.00;98089.72;5113740;28;20023;-78
2022/01/03 07:41:23;;;;;;;32.25;17.60;;;;;;;3.52;100.00;98097.41;5112567;28;20012;-78
2022/01/03 07:43:48;;;;;;;32.40;19.42;;;;;;;3.50;100.00;98099.53;5112798;28;20527;-75
2022/01/03 07:46:14;;;;;;;30.65;18.88;;;;;;;3.54;100.00;98095.25;5112146;28;20464;-82
2022/01/03 07:48:39;;;;;;;31.30;17.63;;;;;;;3.54;100.00;98099.88;5116948;28;20084;-78
2022/01/03 07:51:05;;;;;;;33.22;18.52;;;;;;;3.56;100.00;98108.53;5116145;28;20464;-79
2022/01/03 07:53:30;;;;;;;34.15;18.45;;;;;;;3.69;100.00;98116.31;5112347;28;20035;-78
2022/01/03 07:55:57;;;;;;;33.03;18.15;;;;;;;3.67;100.00;98099.50;5116935;28;20145;-82
2022/01/03 07:58:22;;;;;;;31.13;17.52;;;;;;;3.74;100.00;98094.75;5113969;28;20395;-79
2022/01/03 08:00:50;;;;;;;31.65;17.90;;;;;;;3.82;100.00;98107.88;5114060;28;20030;-78
2022/01/03 08:03:16;;;;;;;30.92;16.63;;;;;;;3.91;100.00;98100.16;5112392;28;20037;-76
2022/01/03 08:05:41;;;;;;;31.58;17.48;;;;;;;4.07;100.00;98113.63;5110433;28;20031;-78
2022/01/03 08:08:09;;;;;;;28.23;16.05;;;;;;;4.22;100.00;98124.69;5106555;28;20080;-77
2022/01/03 08:10:36;;;;;;;26.65;15.10;;;;;;;4.30;100.00;98136.94;5111445;28;20034;-76
2022/01/03 08:13:02;;;;;;;26.63;15.63;;;;;;;4.34;100.00;98138.09;5110395;28;20060;-74
2022/01/03 08:15:27;;;;;;;27.88;15.65;;;;;;;4.51;100.00;98138.03;5108318;28;20015;-74
2022/01/03 08:17:53;;;;;;;31.48;16.27;;;;;;;4.52;100.00;98123.41;5111483;28;20023;-74
2022/01/03 08:20:20;;;;;;;26.63;14.45;;;;;;;4.58;100.00;98135.94;5112488;28;20035;-75
2022/01/03 08:22:48;;;;;;;25.95;15.07;;;;;;;4.59;100.00;98129.47;5112773;28;20027;-75
2022/01/03 08:25:13;;;;;;;29.30;15.27;;;;;;;4.61;100.00;98132.72;5116179;28;20051;-78
2022/01/03 08:27:38;;;;;;;23.92;14.30;;;;;;;4.60;100.00;98117.56;5114340;28;20434;-76
2022/01/03 08:30:08;;;;;;;27.02;14.73;;;;;;;4.71;100.00;98146.41;5101647;28;20085;-76
2022/01/03 08:32:33;;;;;;;25.20;14.43;;;;;;;4.72;100.00;98164.31;5107968;28;20062;-75
2022/01/03 08:34:59;;;;;;;26.38;14.30;;;;;;;4.54;100.00;98157.28;5111449;28;20051;-76
2022/01/03 08:37:24;;;;;;;27.48;15.57;;;;;;;4.64;100.00;98176.38;5111347;28;20915;-75
2022/01/03 08:39:50;;;;;;;22.77;13.85;;;;;;;4.64;100.00;98165.56;5111476;28;20668;-77
2022/01/03 08:42:15;;;;;;;24.95;14.02;;;;;;;4.56;100.00;98162.47;5111881;28;20468;-74
2022/01/03 08:44:41;;;;;;;24.38;14.27;;;;;;;4.46;100.00;98155.03;5110972;28;20053;-76
2022/01/03 08:47:06;;;;;;;25.73;15.75;;;;;;;4.58;100.00;98154.91;5111230;28;20024;-81
2022/01/03 08:49:32;;;;;;;24.38;13.82;;;;;;;4.55;100.00;98152.69;5111650;28;20026;-75
2022/01/03 08:51:57;;;;;;;27.17;14.95;;;;;;;4.59;100.00;98173.63;5105496;28;20027;-77
2022/01/03 08:54:23;;;;;;;23.58;13.85;;;;;;;4.58;100.00;98160.31;5111513;28;20517;-76
2022/01/03 08:56:48;;;;;;;23.27;14.00;;;;;;;4.55;100.00;98171.66;5110768;28;20395;-76
2022/01/03 08:59:14;;;;;;;30.90;15.07;;;;;;;4.54;100.00;98170.03;5110480;28;20068;-75
2022/01/03 09:01:39;;;;;;;26.92;15.02;;;;;;;4.57;100.00;98174.94;5105684;28;20023;-74
2022/01/03 09:04:04;;;;;;;25.98;14.32;;;;;;;4.47;100.00;98174.81;5110346;28;20028;-74
2022/01/03 09:06:30;;;;;;;22.52;13.50;;;;;;;4.59;100.00;98179.03;5110333;28;20032;-75
2022/01/03 09:08:55;;;;;;;25.73;13.93;;;;;;;4.65;100.00;98174.50;5104640;28;20041;-74
2022/01/03 09:11:21;;;;;;;22.40;13.50;;;;;;;4.66;100.00;98149.88;5110101;28;20034;-75
2022/01/03 09:13:46;;;;;;;23.13;13.20;;;;;;;4.71;100.00;98140.97;5108537;28;20024;-74
2022/01/03 09:16:12;;;;;;;23.63;13.70;;;;;;;4.67;100.00;98132.53;5110758;28;20055;-75
2022/01/03 09:18:39;;;;;;;25.88;13.60;;;;;;;4.70;100.00;98152.88;5111512;28;20057;-76
2022/01/03 09:21:05;;;;;;;30.38;13.68;;;;;;;4.76;100.00;98170.88;5114205;28;20030;-74
2022/01/03 09:23:35;;;;;;;23.70;14.23;;;;;;;4.82;100.00;98184.19;5110409;28;20058;-74
2022/01/03 09:28:52;;;;;;;23.00;12.63;;;;;;;4.79;100.00;98205.56;5102537;28;20391;-73
2022/01/03 09:31:25;;;;;;;25.17;14.82;;;;;;;4.72;100.00;98208.47;5108354;28;20030;-76
2022/01/03 09:33:59;;;;;;;22.88;13.35;;;;;;;4.66;100.00;98227.63;5105510;28;20091;-76
2022/01/03 09:36:27;;;;;;;24.70;14.50;;;;;;;4.51;100.00;98219.28;5100882;28;20395;-75
2022/01/03 09:38:53;;;;;;;25.42;14.98;;;;;;;4.24;100.00;98214.56;5107113;28;20380;-78
2022/01/03 09:41:22;;;;;;;23.77;13.75;;;;;;;4.08;100.00;98199.16;5106151;28;20040;-77
2022/01/03 09:43:53;;;;;;;26.77;15.63;;;;;;;4.00;100.00;98215.84;5105444;28;20024;-75
2022/01/03 09:46:33;;;;;;;28.30;14.90;;;;;;;3.92;100.00;98186.47;5106156;28;20433;-75
2022/01/03 09:48:59;;;;;;;30.17;15.30;;;;;;;4.03;100.00;98204.50;5107334;28;20032;-76
2022/01/03 09:51:28;;;;;;;26.27;14.93;;;;;;;4.10;100.00;98202.44;5108021;28;20430;-74
2022/01/03 09:53:57;;;;;;;24.42;14.27;;;;;;;4.23;100.00;98202.09;5104579;28;20027;-78
2022/01/03 09:56:23;;;;;;;30.83;15.50;;;;;;;4.38;100.00;98190.69;5106797;28;20400;-74
2022/01/03 09:58:49;;;;;;;30.23;15.40;;;;;;;4.46;100.00;98197.53;5100869;28;20035;-76
2022/01/03 10:01:15;;;;;;;29.13;13.40;;;;;;;5.02;100.00;98218.03;5099708;28;20026;-76
2022/01/03 10:03:47;;;;;;;26.95;15.23;;;;;;;5.06;100.00;98227.31;5101193;28;20466;-76
2022/01/03 10:06:19;;;;;;;28.17;14.68;;;;;;;5.06;100.00;98238.16;5103753;28;20024;-76
2022/01/03 10:08:45;;;;;;;30.08;15.65;;;;;;;5.00;100.00;98229.13;5106247;28;20035;-77
2022/01/03 10:11:11;;;;;;;27.60;15.32;;;;;;;5.05;100.00;98236.50;5104606;28;20044;-76
2022/01/03 10:13:37;;;;;;;31.23;15.50;;;;;;;5.12;100.00;98220.88;5112377;28;20012;-76
2022/01/03 10:16:03;;;;;;;29.23;15.18;;;;;;;5.01;100.00;98202.84;5115765;28;20139;-79
2022/01/03 10:18:28;;;;;;;27.08;14.82;;;;;;;4.92;100.00;98186.19;5119135;28;20024;-80
2022/01/03 10:20:56;;;;;;;24.95;14.77;;;;;;;5.09;100.00;98200.50;5095574;28;20024;-76
2022/01/03 10:23:21;;;;;;;27.25;15.35;;;;;;;5.18;100.00;98214.44;5111754;28;20377;-77
2022/01/03 10:25:47;;;;;;;26.65;15.30;;;;;;;5.15;100.00;98215.75;5108801;28;20034;-81
2022/01/03 10:28:23;;;;;;;28.27;14.98;;;;;;;5.17;100.00;98205.47;5110685;28;20040;-80
2022/01/03 10:30:49;;;;;;;24.98;14.07;;;;;;;5.13;100.00;98189.97;5112792;28;20020;-77
2022/01/03 10:33:20;;;;;;;22.30;13.57;;;;;;;5.24;100.00;98200.66;5112600;28;20024;-77
2022/01/03 10:35:47;;;;;;;29.35;14.45;;;;;;;5.26;100.00;98209.34;5110897;28;20019;-76
2022/01/03 10:38:36;;;;;;;25.08;14.20;;;;;;;5.16;100.00;98217.41;5111937;28;20081;-77
2022/01/03 10:41:16;;;;;;;25.20;14.35;;;;;;;5.07;100.00;98224.34;5097275;28;20729;-75
2022/01/03 10:43:44;;;;;;;28.00;14.95;;;;;;;5.15;100.00;98228.50;5105713;28;20141;-74
2022/01/03 10:46:24;;;;;;;24.27;14.63;;;;;;;5.11;100.00;98214.63;5110459;28;20030;-75
2022/01/03 10:49:06;;;;;;;24.83;14.05;;;;;;;5.11;100.00;98187.50;5106925;28;20043;-75
2022/01/03 10:51:31;;;;;;;25.00;13.85;;;;;;;5.19;100.00;98181.66;5110949;28;20069;-75
2022/01/03 10:53:57;;;;;;;26.63;13.77;;;;;;;5.21;100.00;98184.09;5111480;28;20051;-74
2022/01/03 10:56:31;;;;;;;24.50;14.15;;;;;;;5.21;100.00;98203.91;5111339;28;20131;-74
2022/01/03 10:59:14;;;;;;;25.15;14.32;;;;;;;5.24;100.00;98194.44;5111451;28;20020;-74
2022/01/03 11:01:42;;;;;;;25.15;14.45;;;;;;;5.24;100.00;98187.13;5109356;28;20023;-76
2022/01/03 11:04:09;;;;;;;24.38;14.30;;;;;;;5.21;100.00;98165.94;5107159;28;20407;-80
2022/01/03 11:11:49;;;;;;;24.42;13.48;;;;;;;5.46;100.00;98162.66;5105024;28;20047;-77
2022/01/03 11:14:44;;;;;;;20.60;13.00;;;;;;;5.43;100.00;98170.47;5109534;28;20028;-82
2022/01/03 11:17:27;;;;;;;21.88;13.43;;;;;;;5.55;100.00;98171.13;5106024;28;20029;-83
2022/01/03 11:19:56;;;;;;;24.38;13.15;;;;;;;5.52;100.00;98177.06;5112266;28;20020;-76
2022/01/03 11:22:38;;;;;;;21.75;13.38;;;;;;;5.60;100.00;98158.44;5112829;28;20031;-78
2022/01/03 11:25:05;;;;;;;24.52;14.18;;;;;;;5.61;100.00;98149.22;5097884;28;20472;-78
2022/01/03 11:27:31;;;;;;;25.02;14.68;;;;;;;5.64;100.00;98143.28;5111541;28;20035;-77
2022/01/03 11:29:58;;;;;;;26.52;14.10;;;;;;;5.54;100.00;98135.06;5111024;28;20031;-76
2022/01/03 11:32:23;;;;;;;27.33;15.98;;;;;;;5.52;100.00;98144.50;5115567;28;20023;-80
2022/01/03 11:34:51;;;;;;;25.52;14.07;;;;;;;5.63;100.00;98154.41;5117419;28;20030;-74
2022/01/03 11:37:16;;;;;;;24.42;14.77;;;;;;;5.70;100.00;98163.16;5112249;28;20030;-74